Terminal Aerodrome Forecast
Issued by NWS Northern Indiana

Home | Current Version | Previous Version | Graphics & Text | Print | Product List | Glossary On
Versions: 1 2 3 4 5 6 7 8 9 10 11 12 13 14 15 16 17 18
000
FTUS43 KIWX 151100
TAFFWA
TAF
KFWA 151130Z 1512/1612 VRB03KT P6SM BKN120
     FM151500 22008KT P6SM BKN060
     FM152000 23010KT P6SM -RA OVC040
     FM152300 30008KT 5SM -RA OVC020
      TEMPO 1523/1603 3SM -RA BR OVC010
     FM160800 35003KT 6SM BR SCT020=

USA.gov is the U.S. government's official web portal to all federal, state and local government web resources and services.